createdAt,value
2023-03-05T00:02:07.650Z,8.10
2023-03-05T00:04:37.207Z,7.65
2023-03-05T00:07:05.636Z,7.53
2023-03-05T00:09:35.812Z,8.95
2023-03-05T00:12:04.190Z,7.53
2023-03-05T00:14:32.221Z,8.43
2023-03-05T00:17:00.337Z,8.32
2023-03-05T00:19:28.437Z,8.50
2023-03-05T00:21:57.833Z,8.32
2023-03-05T00:24:25.867Z,7.90
2023-03-05T00:26:54.670Z,7.50
2023-03-05T00:29:23.124Z,9.27
2023-03-05T00:31:51.349Z,8.85
2023-03-05T00:34:20.502Z,8.73
2023-03-05T00:36:51.142Z,8.00
2023-03-05T00:39:21.909Z,6.95
2023-03-05T00:41:50.567Z,8.07
2023-03-05T00:44:18.807Z,8.93
2023-03-05T00:46:48.258Z,8.55
2023-03-05T00:49:16.866Z,7.38
2023-03-05T00:51:44.876Z,6.82
2023-03-05T00:54:12.889Z,7.90
2023-03-05T00:56:42.421Z,7.82
2023-03-05T00:59:10.501Z,8.05
2023-03-05T01:01:38.581Z,7.93
2023-03-05T01:04:06.846Z,7.07
2023-03-05T01:06:35.100Z,7.65
2023-03-05T01:09:03.212Z,8.35
2023-03-05T01:11:32.117Z,7.40
2023-03-05T01:14:01.576Z,7.45
2023-03-05T01:16:29.725Z,7.93
2023-03-05T01:18:57.772Z,8.70
2023-03-05T01:21:25.893Z,8.18
2023-03-05T01:23:53.981Z,8.05
2023-03-05T01:26:22.003Z,7.88
2023-03-05T01:28:50.073Z,7.68
2023-03-05T01:31:19.598Z,8.93
2023-03-05T01:33:47.606Z,7.97
2023-03-05T01:36:17.313Z,8.07
2023-03-05T01:38:46.549Z,8.00
2023-03-05T01:41:15.971Z,7.87
2023-03-05T01:43:44.174Z,8.02
2023-03-05T01:46:36.051Z,7.53
2023-03-05T01:49:12.035Z,9.02
2023-03-05T01:51:46.078Z,6.88
2023-03-05T01:54:16.916Z,7.60
2023-03-05T01:56:47.278Z,7.93
2023-03-05T01:59:15.670Z,7.30
2023-03-05T02:01:49.490Z,7.20
2023-03-05T02:04:19.905Z,7.93
2023-03-05T02:06:48.598Z,7.22
2023-03-05T02:09:16.883Z,7.68
2023-03-05T02:11:45.145Z,6.78
2023-03-05T02:14:13.189Z,7.80
2023-03-05T02:16:41.293Z,7.22
2023-03-05T02:19:13.123Z,7.80
2023-03-05T02:21:44.980Z,7.00
2023-03-05T02:24:14.603Z,7.90
2023-03-05T02:26:45.028Z,7.45
2023-03-05T02:29:17.115Z,7.95
2023-03-05T02:31:45.512Z,7.47
2023-03-05T02:34:13.600Z,7.75
2023-03-05T02:36:43.227Z,7.82
2023-03-05T02:39:11.506Z,6.78
2023-03-05T02:41:39.549Z,6.70
2023-03-05T02:44:07.574Z,7.20
2023-03-05T02:46:35.786Z,7.90
2023-03-05T02:49:03.872Z,7.95
2023-03-05T02:51:32.061Z,7.05
2023-03-05T02:54:01.473Z,7.78
2023-03-05T02:56:29.489Z,7.43
2023-03-05T02:58:57.525Z,7.45
2023-03-05T03:01:28.261Z,7.95
2023-03-05T03:03:56.352Z,6.65
2023-03-05T03:06:24.483Z,7.43
2023-03-05T03:08:52.507Z,7.28
2023-03-05T03:11:22.006Z,7.15
2023-03-05T03:13:50.072Z,7.25
2023-03-05T03:16:18.913Z,6.65
2023-03-05T03:18:49.008Z,6.82
2023-03-05T03:23:48.562Z,6.88
2023-03-05T03:26:16.839Z,7.30
2023-03-05T03:28:46.829Z,7.28
2023-03-05T03:31:15.189Z,6.63
2023-03-05T03:33:43.262Z,7.00
2023-03-05T03:36:11.678Z,6.53
2023-03-05T03:38:39.842Z,7.00
2023-03-05T03:41:08.906Z,7.55
2023-03-05T03:43:37.684Z,8.18
2023-03-05T03:46:08.238Z,7.57
2023-03-05T03:48:36.675Z,7.80
2023-03-05T03:51:09.028Z,8.23
2023-03-05T03:53:37.093Z,8.38
2023-03-05T03:56:05.716Z,7.13
2023-03-05T03:58:34.153Z,6.90
2023-03-05T04:01:02.283Z,7.75
2023-03-05T04:03:31.701Z,7.57
2023-03-05T04:05:59.902Z,6.85
2023-03-05T04:08:28.106Z,7.97
2023-03-05T04:10:56.124Z,7.55
2023-03-05T04:13:24.429Z,8.55
2023-03-05T04:15:52.491Z,7.68
2023-03-05T04:18:20.657Z,7.82
2023-03-05T04:20:50.083Z,8.10
2023-03-05T04:23:18.191Z,8.38
2023-03-05T04:25:46.237Z,7.38
2023-03-05T04:28:15.306Z,7.85
2023-03-05T04:30:43.304Z,7.50
2023-03-05T04:33:11.473Z,7.45
2023-03-05T04:35:39.861Z,8.05
2023-03-05T04:38:09.906Z,7.28
2023-03-05T04:40:38.109Z,7.68
2023-03-05T04:43:06.941Z,6.70
2023-03-05T04:45:35.338Z,7.60
2023-03-05T04:48:03.446Z,8.35
2023-03-05T04:50:31.808Z,7.93
2023-03-05T04:53:00.588Z,7.45
2023-03-05T04:55:30.132Z,8.23
2023-03-05T04:57:58.226Z,8.00
2023-03-05T05:00:26.869Z,8.30
2023-03-05T05:02:55.198Z,7.97
2023-03-05T05:05:25.897Z,7.63
2023-03-05T05:07:57.178Z,7.53
2023-03-05T05:10:25.917Z,8.05
2023-03-05T05:12:55.456Z,7.75
2023-03-05T05:15:23.497Z,8.40
2023-03-05T05:17:51.921Z,7.90
2023-03-05T05:20:20.265Z,8.60
2023-03-05T05:22:48.271Z,8.07
2023-03-05T05:25:16.478Z,7.47
2023-03-05T05:27:44.591Z,8.00
2023-03-05T05:30:14.809Z,7.63
2023-03-05T05:35:12.011Z,7.53
2023-03-05T05:37:40.160Z,7.80
2023-03-05T05:40:09.898Z,7.15
2023-03-05T05:42:37.931Z,8.13
2023-03-05T05:45:06.886Z,6.82
2023-03-05T05:47:36.396Z,8.65
2023-03-05T05:50:04.477Z,7.72
2023-03-05T05:52:32.588Z,7.78
2023-03-05T05:55:00.572Z,7.47
2023-03-05T05:57:28.573Z,7.88
2023-03-05T05:59:56.562Z,7.95
2023-03-05T06:02:24.802Z,7.93
2023-03-05T06:04:54.610Z,7.53
2023-03-05T06:07:23.475Z,7.65
2023-03-05T06:09:51.506Z,6.78
2023-03-05T06:12:20.710Z,7.45
2023-03-05T06:14:48.699Z,7.80
2023-03-05T06:17:25.114Z,7.63
2023-03-05T06:19:59.684Z,7.38
2023-03-05T06:22:27.843Z,8.02
2023-03-05T06:24:55.821Z,6.72
2023-03-05T06:27:23.857Z,7.68
2023-03-05T06:29:54.012Z,7.63
2023-03-05T06:34:50.456Z,7.20
2023-03-05T06:37:19.932Z,7.95
2023-03-05T06:39:47.983Z,8.20
2023-03-05T06:42:17.747Z,8.38
2023-03-05T06:44:47.897Z,7.97
2023-03-05T06:47:17.682Z,7.75
2023-03-05T06:49:45.700Z,7.60
2023-03-05T06:52:13.813Z,7.18
2023-03-05T06:54:43.235Z,7.72
2023-03-05T06:57:12.197Z,7.13
2023-03-05T06:59:40.340Z,7.03
2023-03-05T07:02:11.974Z,6.78
2023-03-05T07:04:40.049Z,8.30
2023-03-05T07:07:10.826Z,7.10
2023-03-05T07:09:42.975Z,7.60
2023-03-05T07:12:12.909Z,7.13
2023-03-05T07:14:40.914Z,7.13
2023-03-05T07:17:09.126Z,7.10
2023-03-05T07:19:37.224Z,6.65
2023-03-05T07:22:05.206Z,6.43
2023-03-05T07:24:33.198Z,7.72
2023-03-05T07:27:01.538Z,7.32
2023-03-05T07:29:30.946Z,8.05
2023-03-05T07:31:59.014Z,7.22
2023-03-05T07:34:27.320Z,6.55
2023-03-05T07:36:55.514Z,6.30
2023-03-05T07:39:23.506Z,7.57
2023-03-05T07:41:52.650Z,7.28
2023-03-05T07:44:20.690Z,6.75
2023-03-05T07:46:50.151Z,7.07
2023-03-05T07:49:18.162Z,7.13
2023-03-05T07:51:46.220Z,6.82
2023-03-05T07:54:14.321Z,7.03
2023-03-05T07:56:42.456Z,6.88
2023-03-05T07:59:13.718Z,6.65
2023-03-05T08:01:42.008Z,7.70
2023-03-05T08:04:11.855Z,8.13
2023-03-05T08:06:41.080Z,6.78
2023-03-05T08:09:09.327Z,6.77
2023-03-05T08:11:37.322Z,6.63
2023-03-05T08:14:05.341Z,6.82
2023-03-05T08:16:33.531Z,6.97
2023-03-05T08:19:01.655Z,7.35
2023-03-05T08:21:33.880Z,6.88
2023-03-05T08:24:03.211Z,7.32
2023-03-05T08:26:32.786Z,7.70
2023-03-05T08:29:00.954Z,7.32
2023-03-05T08:31:30.308Z,6.75
2023-03-05T08:34:02.073Z,6.10
2023-03-05T08:36:31.623Z,6.20
2023-03-05T08:39:00.518Z,6.22
2023-03-05T08:41:28.601Z,6.45
2023-03-05T08:43:56.648Z,7.07
2023-03-05T08:46:25.037Z,6.70
2023-03-05T08:48:53.098Z,6.97
2023-03-05T08:51:25.554Z,6.78
2023-03-05T08:53:56.490Z,6.63
2023-03-05T08:56:26.304Z,6.03
2023-03-05T08:58:54.436Z,6.28
2023-03-05T09:01:24.128Z,6.60
2023-03-05T09:03:52.328Z,6.68
2023-03-05T09:06:20.621Z,6.32
2023-03-05T09:08:48.587Z,6.80
2023-03-05T09:11:18.518Z,6.07
2023-03-05T09:13:46.528Z,6.25
2023-03-05T09:16:16.299Z,5.85
2023-03-05T09:18:44.968Z,6.10
2023-03-05T09:21:15.740Z,5.38
2023-03-05T09:23:47.324Z,5.95
2023-03-05T09:26:19.470Z,6.25
2023-03-05T09:28:48.733Z,6.35
2023-03-05T09:31:17.056Z,5.90
2023-03-05T09:33:45.171Z,5.28
2023-03-05T09:36:21.084Z,5.47
2023-03-05T09:38:49.132Z,5.30
2023-03-05T09:41:30.334Z,5.53
2023-03-05T09:44:08.945Z,5.65
2023-03-05T09:46:51.615Z,4.95
2023-03-05T09:49:30.493Z,5.03
2023-03-05T09:52:10.640Z,5.65
2023-03-05T09:54:42.519Z,5.10
2023-03-05T09:57:18.740Z,5.93
2023-03-05T09:59:51.092Z,5.88
2023-03-05T10:02:22.137Z,5.32
2023-03-05T10:04:56.122Z,5.63
2023-03-05T10:07:28.782Z,5.35
2023-03-05T10:10:00.704Z,5.50
2023-03-05T10:12:42.611Z,5.55
2023-03-05T10:15:14.572Z,6.07
2023-03-05T10:18:06.921Z,4.50
2023-03-05T10:20:52.439Z,5.10
2023-03-05T10:23:30.189Z,4.63
2023-03-05T10:26:12.138Z,5.03
2023-03-05T10:28:47.790Z,5.03
2023-03-05T10:31:38.373Z,4.25
2023-03-05T10:34:32.628Z,4.82
2023-03-05T10:37:39.993Z,4.82
2023-03-05T10:40:17.323Z,5.20
2023-03-05T10:42:55.301Z,4.80
2023-03-05T10:45:29.427Z,4.40
2023-03-05T10:48:04.648Z,4.55
2023-03-05T10:50:37.309Z,4.30
2023-03-05T10:53:17.147Z,3.90
2023-03-05T10:55:45.791Z,4.43
2023-03-05T10:58:14.829Z,4.13
2023-03-05T11:00:59.910Z,4.28
2023-03-05T11:03:30.466Z,3.75
2023-03-05T11:06:02.230Z,4.55
2023-03-05T11:08:33.670Z,3.78
2023-03-05T11:11:15.283Z,4.40
2023-03-05T11:13:53.074Z,4.03
2023-03-05T11:16:24.825Z,4.10
2023-03-05T11:19:16.835Z,3.60
2023-03-05T11:21:46.232Z,3.60
2023-03-05T11:24:16.112Z,3.17
2023-03-05T11:26:52.261Z,3.17
2023-03-05T11:29:26.259Z,3.50
2023-03-05T11:31:56.021Z,2.63
2023-03-05T11:34:31.528Z,2.70
2023-03-05T11:37:06.392Z,2.25
2023-03-05T11:39:38.492Z,2.58
2023-03-05T11:42:12.094Z,2.90
2023-03-05T11:44:48.186Z,2.30
2023-03-05T11:47:25.767Z,2.40
2023-03-05T11:50:02.278Z,2.67
2023-03-05T11:52:35.462Z,1.92
2023-03-05T11:55:07.195Z,2.05
2023-03-05T11:57:44.001Z,1.88
2023-03-05T12:00:17.987Z,1.92
2023-03-05T12:02:51.817Z,1.60
2023-03-05T12:05:20.012Z,1.58
2023-03-05T12:07:52.103Z,1.65
2023-03-05T12:10:22.144Z,1.60
2023-03-05T12:12:57.042Z,1.90
2023-03-05T12:15:47.784Z,1.60
2023-03-05T12:18:30.597Z,1.92
2023-03-05T12:21:07.445Z,1.70
2023-03-05T12:23:50.363Z,1.48
2023-03-05T12:26:19.075Z,1.60
2023-03-05T12:28:58.535Z,2.13
2023-03-05T12:31:38.006Z,1.70
2023-03-05T12:34:47.246Z,1.10
2023-03-05T12:37:16.233Z,1.00
2023-03-05T12:39:53.192Z,0.73
2023-03-05T12:42:52.649Z,0.82
2023-03-05T12:45:33.455Z,0.90
2023-03-05T12:48:37.171Z,1.50
2023-03-05T12:51:06.734Z,0.88
2023-03-05T12:53:35.102Z,3.22
2023-03-05T12:56:12.394Z,2.97
2023-03-05T12:58:45.194Z,1.73
2023-03-05T13:01:30.337Z,1.38
2023-03-05T13:04:02.023Z,1.15
2023-03-05T13:06:34.213Z,1.40
2023-03-05T13:09:04.258Z,1.50
2023-03-05T13:11:35.110Z,1.10
2023-03-05T13:14:03.709Z,1.23
2023-03-05T13:16:38.248Z,1.10
2023-03-05T13:19:17.506Z,1.10
2023-03-05T13:21:46.942Z,1.00
2023-03-05T13:24:17.962Z,0.60
2023-03-05T13:26:46.162Z,1.25
2023-03-05T13:29:16.633Z,0.73
2023-03-05T13:31:46.594Z,1.15
2023-03-05T13:34:19.377Z,1.23
2023-03-05T13:36:55.697Z,0.88
2023-03-05T13:39:27.398Z,1.05
2023-03-05T13:42:04.328Z,0.68
2023-03-05T13:44:33.550Z,1.10
2023-03-05T13:47:09.855Z,0.80
2023-03-05T13:49:37.852Z,0.88
2023-03-05T13:52:07.925Z,0.82
2023-03-05T13:54:35.961Z,0.88
2023-03-05T13:57:06.698Z,0.80
2023-03-05T13:59:39.094Z,0.60
2023-03-05T14:02:18.339Z,0.93
2023-03-05T14:07:42.973Z,0.80
2023-03-05T14:10:30.602Z,0.70
2023-03-05T14:12:59.662Z,0.65
2023-03-05T14:15:30.795Z,1.30
2023-03-05T14:18:19.365Z,0.60
2023-03-05T14:21:03.139Z,0.60
2023-03-05T14:23:39.296Z,0.50
2023-03-05T14:26:22.072Z,0.20
2023-03-05T14:28:54.784Z,0.65
2023-03-05T14:31:23.836Z,0.50
2023-03-05T14:33:53.459Z,0.30
2023-03-05T14:36:27.402Z,0.35
2023-03-05T14:38:57.930Z,0.30
2023-03-05T14:41:38.691Z,0.20
2023-03-05T14:44:13.653Z,0.50
2023-03-05T14:46:42.097Z,0.40
2023-03-05T14:49:10.521Z,1.10
2023-03-05T14:51:41.840Z,0.50
2023-03-05T14:54:21.674Z,0.57
2023-03-05T14:56:50.780Z,0.60
2023-03-05T14:59:19.131Z,1.30
2023-03-05T15:01:47.204Z,1.02
2023-03-05T15:04:19.110Z,1.30
2023-03-05T15:06:51.023Z,0.70
2023-03-05T15:09:21.242Z,0.90
2023-03-05T15:11:50.073Z,0.77
2023-03-05T15:14:18.161Z,0.40
2023-03-05T15:16:48.838Z,0.68
2023-03-05T15:19:16.915Z,0.70
2023-03-05T15:21:45.068Z,0.57
2023-03-05T15:24:14.862Z,0.30
2023-03-05T15:26:46.239Z,0.47
2023-03-05T15:29:14.227Z,0.57
2023-03-05T15:31:42.218Z,0.43
2023-03-05T15:34:10.228Z,0.75
2023-03-05T15:36:38.337Z,0.60
2023-03-05T15:39:06.399Z,0.60
2023-03-05T15:41:34.417Z,1.08
2023-03-05T15:44:03.985Z,0.80
2023-03-05T15:46:33.404Z,0.98
2023-03-05T15:49:01.442Z,0.77
2023-03-05T15:51:29.527Z,1.02
2023-03-05T15:53:58.068Z,1.63
2023-03-05T15:56:26.056Z,1.00
2023-03-05T15:58:54.206Z,0.90
2023-03-05T16:01:23.732Z,1.17
2023-03-05T16:03:52.293Z,1.30
2023-03-05T16:06:23.350Z,1.35
2023-03-05T16:08:53.671Z,3.92
2023-03-05T16:11:21.932Z,1.42
2023-03-05T16:13:51.409Z,0.75
2023-03-05T16:16:21.813Z,1.10
2023-03-05T16:18:51.590Z,2.55
2023-03-05T16:21:19.634Z,1.55
2023-03-05T16:23:49.461Z,2.08
2023-03-05T16:26:19.940Z,1.02
2023-03-05T16:28:47.888Z,1.77
2023-03-05T16:31:15.904Z,14.10
2023-03-05T16:33:43.999Z,10.85
2023-03-05T16:36:26.020Z,16.15
2023-03-05T16:38:56.327Z,8.02
2023-03-05T16:41:25.199Z,1.90
2023-03-05T16:43:56.356Z,1.20
2023-03-05T16:46:25.148Z,1.05
2023-03-05T16:48:54.358Z,0.85
2023-03-05T16:51:23.892Z,1.20
2023-03-05T16:53:52.318Z,0.80
2023-03-05T16:56:20.886Z,1.20
2023-03-05T16:58:51.397Z,5.97
2023-03-05T17:01:21.893Z,10.70
2023-03-05T17:03:50.600Z,10.60
2023-03-05T17:06:24.513Z,3.45
2023-03-05T17:08:54.653Z,5.78
2023-03-05T17:13:50.698Z,2.05
2023-03-05T17:16:20.650Z,2.70
2023-03-05T17:18:49.349Z,1.05
2023-03-05T17:21:17.479Z,3.80
2023-03-05T17:23:45.944Z,3.30
2023-03-05T17:26:17.714Z,3.75
2023-03-05T17:28:46.196Z,3.28
2023-03-05T17:31:14.915Z,3.15
2023-03-05T17:33:43.165Z,2.50
2023-03-05T17:36:15.220Z,2.80
2023-03-05T17:38:43.645Z,4.13
2023-03-05T17:41:11.820Z,2.53
2023-03-05T17:43:41.385Z,3.42
2023-03-05T17:46:10.024Z,3.30
2023-03-05T17:48:39.392Z,4.85
2023-03-05T17:51:08.268Z,3.17
2023-03-05T17:53:38.923Z,3.55
2023-03-05T17:56:08.931Z,3.13
2023-03-05T17:58:37.111Z,3.95
2023-03-05T18:01:08.215Z,3.50
2023-03-05T18:03:37.142Z,3.78
2023-03-05T18:06:05.836Z,2.25
2023-03-05T18:08:33.910Z,1.20
2023-03-05T18:11:01.949Z,1.88
2023-03-05T18:13:29.938Z,2.05
2023-03-05T18:15:59.536Z,1.88
2023-03-05T18:18:29.517Z,2.47
2023-03-05T18:20:57.604Z,2.67
2023-03-05T18:23:25.590Z,2.75
2023-03-05T18:25:53.601Z,1.52
2023-03-05T18:28:22.071Z,1.77
2023-03-05T18:30:50.227Z,1.58
2023-03-05T18:33:20.885Z,1.50
2023-03-05T18:35:52.484Z,1.75
2023-03-05T18:38:21.330Z,2.58
2023-03-05T18:40:51.444Z,2.53
2023-03-05T18:45:51.339Z,2.40
2023-03-05T18:48:19.819Z,2.83
2023-03-05T18:50:52.573Z,2.70
2023-03-05T18:53:22.752Z,3.13
2023-03-05T18:58:19.817Z,2.55
2023-03-05T19:00:48.710Z,2.42
2023-03-05T19:03:19.839Z,2.50
2023-03-05T19:05:51.307Z,3.53
2023-03-05T19:10:49.261Z,3.72
2023-03-05T19:13:25.870Z,2.67
2023-03-05T19:15:54.122Z,2.67
2023-03-05T19:18:25.740Z,3.10
2023-03-05T19:20:55.986Z,2.55
2023-03-05T19:23:24.106Z,2.85
2023-03-05T19:25:53.532Z,2.67
2023-03-05T19:28:21.933Z,1.90
2023-03-05T19:30:50.130Z,2.15
2023-03-05T19:33:18.142Z,3.08
2023-03-05T19:35:46.233Z,3.10
2023-03-05T19:38:14.227Z,3.30
2023-03-05T19:40:42.660Z,2.65
2023-03-05T19:43:12.197Z,2.47
2023-03-05T19:45:40.212Z,2.88
2023-03-05T19:48:08.765Z,3.03
2023-03-05T19:50:36.894Z,2.22
2023-03-05T19:53:04.934Z,2.30
2023-03-05T19:55:33.073Z,2.03
2023-03-05T19:58:01.102Z,3.28
2023-03-05T20:00:30.707Z,2.72
2023-03-05T20:02:58.891Z,2.13
2023-03-05T20:05:26.959Z,1.90
2023-03-05T20:07:55.106Z,1.80
2023-03-05T20:10:23.442Z,1.95
2023-03-05T20:12:51.871Z,1.65
2023-03-05T20:15:23.494Z,1.73
2023-03-05T20:17:54.918Z,1.52
2023-03-05T20:20:23.135Z,1.30
2023-03-05T20:22:51.163Z,1.90
2023-03-05T20:25:22.352Z,1.27
2023-03-05T20:27:50.432Z,2.55
2023-03-05T20:30:19.056Z,1.95
2023-03-05T20:32:47.426Z,3.72
2023-03-05T20:35:18.780Z,2.00
2023-03-05T20:38:00.237Z,1.83
2023-03-05T20:40:30.400Z,1.35
2023-03-05T20:45:26.144Z,1.98
2023-03-05T20:47:55.634Z,1.92
2023-03-05T20:50:26.591Z,1.98
2023-03-05T20:52:54.635Z,1.98
2023-03-05T20:55:23.494Z,1.90
2023-03-05T20:57:51.717Z,2.00
2023-03-05T21:00:20.298Z,1.90
2023-03-05T21:02:50.665Z,1.35
2023-03-05T21:05:20.262Z,1.77
2023-03-05T21:07:50.210Z,1.70
2023-03-05T21:10:18.650Z,1.88
2023-03-05T21:12:48.008Z,1.52
2023-03-05T21:15:19.452Z,1.40
2023-03-05T21:17:48.012Z,2.10
2023-03-05T21:20:17.350Z,2.35
2023-03-05T21:22:45.361Z,2.08
2023-03-05T21:25:21.864Z,2.53
2023-03-05T21:27:51.483Z,2.80
2023-03-05T21:30:21.358Z,2.22
2023-03-05T21:32:50.086Z,2.90
2023-03-05T21:35:19.925Z,2.10
2023-03-05T21:37:48.500Z,2.25
2023-03-05T21:40:18.977Z,2.70
2023-03-05T21:42:47.731Z,2.90
2023-03-05T21:45:19.536Z,2.22
2023-03-05T21:47:48.252Z,1.70
2023-03-05T21:50:18.216Z,2.28
2023-03-05T21:52:47.948Z,3.03
2023-03-05T21:55:19.519Z,1.50
2023-03-05T21:57:47.553Z,2.13
2023-03-05T22:00:18.220Z,2.20
2023-03-05T22:02:47.033Z,4.20
2023-03-05T22:05:15.678Z,3.08
2023-03-05T22:07:44.459Z,1.33
2023-03-05T22:10:14.046Z,1.58
2023-03-05T22:12:53.316Z,1.88
2023-03-05T22:15:21.853Z,1.27
2023-03-05T22:17:50.334Z,1.73
2023-03-05T22:20:19.205Z,1.48
2023-03-05T22:22:47.258Z,1.58
2023-03-05T22:25:16.932Z,1.42
2023-03-05T22:27:46.491Z,1.40
2023-03-05T22:30:15.215Z,1.08
2023-03-05T22:32:43.232Z,1.52
2023-03-05T22:35:13.566Z,1.90
2023-03-05T22:37:42.476Z,1.80
2023-03-05T22:40:14.669Z,2.28
2023-03-05T22:42:42.980Z,1.73
2023-03-05T22:45:13.760Z,1.85
2023-03-05T22:47:41.833Z,2.38
2023-03-05T22:50:11.101Z,1.98
2023-03-05T22:52:39.168Z,1.80
2023-03-05T22:55:07.880Z,1.95
2023-03-05T22:57:35.887Z,2.08
2023-03-05T23:00:08.179Z,1.90
2023-03-05T23:02:37.588Z,1.67
2023-03-05T23:05:07.356Z,1.67
2023-03-05T23:07:37.660Z,1.80
2023-03-05T23:10:10.715Z,2.00
2023-03-05T23:12:44.091Z,1.38
2023-03-05T23:15:14.775Z,1.70
2023-03-05T23:17:44.164Z,1.67
2023-03-05T23:20:16.719Z,1.48
2023-03-05T23:22:46.341Z,1.63
2023-03-05T23:25:16.473Z,1.38
2023-03-05T23:27:44.807Z,1.88
2023-03-05T23:30:19.770Z,1.38
2023-03-05T23:32:52.166Z,1.48
2023-03-05T23:35:22.516Z,1.48
2023-03-05T23:37:50.572Z,1.55
2023-03-05T23:40:21.391Z,1.38
2023-03-05T23:42:49.478Z,1.50
2023-03-05T23:45:20.219Z,1.55
2023-03-05T23:47:52.069Z,1.67
2023-03-05T23:50:22.195Z,1.48
2023-03-05T23:52:51.033Z,1.50
2023-03-05T23:55:21.475Z,1.85
2023-03-05T23:57:50.098Z,1.42
